createdAt,value
2022-08-08T00:02:04.151Z,63.50
2022-08-08T00:06:04.049Z,64.20
2022-08-08T00:10:17.361Z,63.90
2022-08-08T00:14:47.699Z,63.30
2022-08-08T00:18:30.641Z,64.60
2022-08-08T00:22:56.064Z,64.70
2022-08-08T00:26:43.099Z,62.50
2022-08-08T00:30:30.864Z,59.50
2022-08-08T00:35:08.859Z,64.10
2022-08-08T00:39:36.245Z,63.10
2022-08-08T00:43:41.446Z,59.00
2022-08-08T00:48:05.417Z,63.50
2022-08-08T00:52:22.939Z,64.10
2022-08-08T00:56:50.914Z,63.70
2022-08-08T01:00:50.666Z,64.10
2022-08-08T01:05:03.964Z,65.00
2022-08-08T01:09:34.834Z,64.70
2022-08-08T01:13:58.494Z,64.50
2022-08-08T01:17:53.933Z,64.40
2022-08-08T01:22:12.790Z,66.00
2022-08-08T01:26:13.887Z,65.30
2022-08-08T01:30:54.096Z,65.60
2022-08-08T01:35:01.404Z,65.10
2022-08-08T01:38:56.239Z,65.70
2022-08-08T01:43:04.168Z,66.40
2022-08-08T01:48:14.872Z,65.20
2022-08-08T01:52:52.643Z,65.90
2022-08-08T01:56:30.974Z,65.10
2022-08-08T02:00:18.581Z,65.30
2022-08-08T02:04:04.157Z,62.60
2022-08-08T02:08:23.813Z,66.20
2022-08-08T02:12:53.493Z,65.50
2022-08-08T02:16:52.536Z,65.50
2022-08-08T02:21:18.341Z,66.50
2022-08-08T02:25:23.068Z,66.10
2022-08-08T02:29:52.674Z,66.30
2022-08-08T02:34:14.841Z,66.90
2022-08-08T02:38:34.102Z,66.20
2022-08-08T02:42:35.975Z,66.80
2022-08-08T02:46:37.136Z,67.50
2022-08-08T02:51:05.260Z,67.50
2022-08-08T02:54:50.383Z,67.10
2022-08-08T02:58:47.641Z,68.40
2022-08-08T03:03:08.046Z,68.60
2022-08-08T03:07:23.076Z,67.80
2022-08-08T03:12:01.801Z,68.00
2022-08-08T03:16:13.042Z,68.10
2022-08-08T03:20:15.565Z,68.10
2022-08-08T03:24:02.038Z,68.70
2022-08-08T03:28:10.236Z,68.70
2022-08-08T03:32:13.081Z,67.90
2022-08-08T03:35:56.115Z,69.30
2022-08-08T03:39:51.510Z,69.40
2022-08-08T03:43:38.455Z,69.60
2022-08-08T03:47:22.643Z,69.60
2022-08-08T03:51:07.399Z,69.60
2022-08-08T03:55:02.562Z,69.80
2022-08-08T03:58:53.230Z,69.90
2022-08-08T04:02:47.061Z,69.70
2022-08-08T04:06:30.631Z,69.70
2022-08-08T04:10:12.720Z,69.80
2022-08-08T04:14:03.943Z,69.70
2022-08-08T04:17:58.739Z,69.70
2022-08-08T04:21:45.706Z,69.80
2022-08-08T04:25:29.662Z,69.80
2022-08-08T04:29:12.400Z,69.90
2022-08-08T04:32:57.031Z,70.20
2022-08-08T04:36:38.923Z,70.90
2022-08-08T04:40:23.859Z,70.30
2022-08-08T04:44:06.453Z,70.50
2022-08-08T04:47:48.250Z,70.60
2022-08-08T04:51:55.041Z,70.80
2022-08-08T04:55:47.322Z,70.90
2022-08-08T04:59:42.214Z,70.90
2022-08-08T05:04:10.101Z,70.70
2022-08-08T05:07:26.985Z,70.90
2022-08-08T05:11:23.826Z,71.10
2022-08-08T05:15:08.186Z,71.20
2022-08-08T05:18:56.399Z,71.30
2022-08-08T05:22:39.441Z,71.60
2022-08-08T05:26:22.513Z,71.70
2022-08-08T05:30:12.819Z,71.80
2022-08-08T05:33:54.766Z,72.00
2022-08-08T05:37:52.025Z,72.20
2022-08-08T05:41:54.654Z,72.40
2022-08-08T05:45:43.246Z,72.60
2022-08-08T05:49:38.028Z,72.70
2022-08-08T05:54:24.129Z,72.80
2022-08-08T05:58:05.453Z,73.00
2022-08-08T06:01:55.980Z,73.30
2022-08-08T06:05:44.391Z,74.30
2022-08-08T06:10:00.402Z,74.00
2022-08-08T06:13:47.343Z,74.40
2022-08-08T06:17:50.924Z,75.00
2022-08-08T06:21:57.020Z,75.60
2022-08-08T06:26:35.697Z,71.50
2022-08-08T06:30:20.143Z,75.20
2022-08-08T06:34:26.504Z,75.70
2022-08-08T06:38:14.434Z,76.10
2022-08-08T06:41:58.182Z,76.40
2022-08-08T06:45:40.413Z,77.20
2022-08-08T06:49:55.664Z,78.00
2022-08-08T06:53:38.885Z,78.00
2022-08-08T06:57:25.135Z,79.00
2022-08-08T07:02:17.389Z,79.00
2022-08-08T07:05:20.501Z,78.30
2022-08-08T07:09:21.293Z,79.10
2022-08-08T07:13:07.468Z,78.50
2022-08-08T07:17:09.549Z,75.00
2022-08-08T07:21:04.829Z,78.30
2022-08-08T07:25:02.322Z,79.00
2022-08-08T07:28:44.775Z,78.60
2022-08-08T07:32:27.918Z,79.00
2022-08-08T07:36:11.579Z,79.10
2022-08-08T07:39:59.916Z,79.10
2022-08-08T07:43:53.438Z,78.90
2022-08-08T07:47:39.179Z,78.70
2022-08-08T07:51:23.840Z,78.60
2022-08-08T07:55:36.453Z,78.20
2022-08-08T07:59:20.862Z,78.40
2022-08-08T08:03:20.326Z,77.90
2022-08-08T08:07:08.550Z,77.90
2022-08-08T08:10:52.258Z,77.60
2022-08-08T08:15:02.978Z,77.70
2022-08-08T08:18:56.411Z,76.60
2022-08-08T08:22:38.680Z,76.80
2022-08-08T08:26:27.602Z,76.60
2022-08-08T08:30:11.027Z,76.50
2022-08-08T08:33:53.207Z,76.00
2022-08-08T08:37:52.847Z,75.90
2022-08-08T08:41:39.037Z,75.80
2022-08-08T08:45:23.695Z,75.20
2022-08-08T08:49:09.858Z,74.70
2022-08-08T08:52:59.371Z,74.40
2022-08-08T08:56:41.800Z,74.10
2022-08-08T09:00:39.774Z,73.60
2022-08-08T09:04:38.690Z,73.50
2022-08-08T09:08:27.547Z,73.50
2022-08-08T09:12:12.012Z,73.20
2022-08-08T09:16:03.570Z,73.10
2022-08-08T09:21:58.981Z,72.50
2022-08-08T09:23:52.079Z,72.20
2022-08-08T09:27:41.990Z,71.80
2022-08-08T09:32:12.020Z,71.50
2022-08-08T09:35:56.934Z,70.80
2022-08-08T09:39:41.903Z,70.90
2022-08-08T09:44:03.031Z,70.40
2022-08-08T09:48:04.778Z,69.80
2022-08-08T09:51:41.552Z,68.70
2022-08-08T09:56:05.195Z,68.30
2022-08-08T10:00:02.817Z,66.60
2022-08-08T10:03:55.932Z,62.60
2022-08-08T10:07:45.757Z,56.50
2022-08-08T10:12:27.355Z,54.00
2022-08-08T10:15:39.069Z,48.90
2022-08-08T10:19:21.243Z,48.10
2022-08-08T10:23:04.593Z,44.50
2022-08-08T10:26:59.677Z,41.70
2022-08-08T10:31:01.056Z,40.50
2022-08-08T10:34:57.065Z,41.30
2022-08-08T10:38:43.006Z,38.70
2022-08-08T10:42:38.898Z,35.00
2022-08-08T10:46:30.231Z,36.80
2022-08-08T10:50:15.443Z,33.70
2022-08-08T10:53:59.754Z,31.50
2022-08-08T10:57:50.465Z,31.80
2022-08-08T11:01:39.384Z,32.40
2022-08-08T11:05:22.958Z,31.40
2022-08-08T11:09:15.545Z,30.00
2022-08-08T11:17:08.701Z,28.70
2022-08-08T11:21:00.957Z,28.80
2022-08-08T11:24:53.510Z,28.30
2022-08-08T11:28:38.849Z,28.80
2022-08-08T11:32:29.321Z,28.00
2022-08-08T11:36:15.099Z,28.10
2022-08-08T11:39:59.106Z,28.00
2022-08-08T11:43:45.135Z,28.00
2022-08-08T11:47:39.680Z,27.30
2022-08-08T11:51:39.686Z,26.80
2022-08-08T11:55:32.085Z,27.00
2022-08-08T11:59:13.889Z,26.30
2022-08-08T12:02:57.268Z,26.40
2022-08-08T12:06:40.792Z,26.20
2022-08-08T12:10:27.996Z,26.20
2022-08-08T12:14:11.026Z,26.20
2022-08-08T12:17:54.035Z,25.50
2022-08-08T12:21:58.551Z,25.40
2022-08-08T12:25:38.483Z,26.40
2022-08-08T12:29:42.512Z,25.10
2022-08-08T12:33:37.242Z,25.50
2022-08-08T12:37:25.875Z,25.40
2022-08-08T12:41:35.352Z,29.40
2022-08-08T12:45:58.328Z,24.80
2022-08-08T12:49:53.645Z,25.90
2022-08-08T12:53:44.147Z,24.60
2022-08-08T12:57:28.997Z,24.30
2022-08-08T13:01:14.070Z,24.60
2022-08-08T13:04:59.233Z,24.60
2022-08-08T13:08:53.425Z,24.20
2022-08-08T13:12:47.172Z,24.90
2022-08-08T13:16:33.640Z,24.60
2022-08-08T13:20:20.041Z,24.20
2022-08-08T13:24:06.324Z,24.60
2022-08-08T13:27:56.447Z,23.80
2022-08-08T13:31:51.722Z,24.20
2022-08-08T13:35:38.996Z,25.10
2022-08-08T13:39:25.687Z,23.50
2022-08-08T13:43:08.305Z,24.10
2022-08-08T13:47:08.321Z,24.80
2022-08-08T13:50:55.096Z,26.00
2022-08-08T13:54:44.416Z,24.00
2022-08-08T13:58:31.572Z,24.00
2022-08-08T14:02:20.647Z,23.80
2022-08-08T14:06:32.321Z,23.90
2022-08-08T14:10:17.734Z,24.10
2022-08-08T14:14:20.560Z,23.60
2022-08-08T14:18:35.556Z,23.70
2022-08-08T14:22:26.270Z,23.40
2022-08-08T14:26:10.858Z,24.70
2022-08-08T14:29:59.029Z,23.70
2022-08-08T14:33:43.420Z,23.70
2022-08-08T14:37:43.170Z,23.50
2022-08-08T14:41:54.786Z,24.10
2022-08-08T14:46:02.096Z,25.00
2022-08-08T14:50:02.536Z,25.50
2022-08-08T14:53:55.586Z,26.50
2022-08-08T14:58:06.540Z,26.20
2022-08-08T15:01:49.782Z,26.20
2022-08-08T15:05:43.150Z,27.10
2022-08-08T15:09:34.434Z,26.90
2022-08-08T15:13:17.581Z,27.70
2022-08-08T15:17:02.856Z,27.40
2022-08-08T15:20:45.169Z,28.50
2022-08-08T15:24:31.762Z,28.30
2022-08-08T15:28:34.169Z,28.50
2022-08-08T15:32:20.517Z,28.00
2022-08-08T15:36:05.257Z,28.30
2022-08-08T15:39:48.213Z,28.20
2022-08-08T15:43:36.472Z,28.10
2022-08-08T15:47:20.452Z,27.40
2022-08-08T15:51:06.131Z,27.60
2022-08-08T15:54:51.624Z,27.70
2022-08-08T15:58:35.528Z,28.40
2022-08-08T16:02:17.423Z,28.30
2022-08-08T16:06:01.851Z,28.10
2022-08-08T16:13:03.531Z,28.70
2022-08-08T16:13:47.046Z,29.10
2022-08-08T16:17:57.429Z,29.00
2022-08-08T16:21:34.855Z,29.10
2022-08-08T16:25:16.909Z,29.30
2022-08-08T16:29:01.980Z,29.20
2022-08-08T16:32:48.426Z,29.10
2022-08-08T16:36:34.071Z,29.10
2022-08-08T16:40:19.905Z,29.20
2022-08-08T16:44:01.937Z,29.50
2022-08-08T16:47:46.571Z,29.80
2022-08-08T16:55:02.815Z,29.60
2022-08-08T16:55:53.500Z,29.90
2022-08-08T16:59:51.961Z,29.40
2022-08-08T17:04:00.385Z,29.70
2022-08-08T17:07:37.735Z,29.70
2022-08-08T17:11:22.351Z,29.90
2022-08-08T17:15:17.553Z,29.90
2022-08-08T17:19:02.456Z,29.60
2022-08-08T17:22:44.870Z,29.70
2022-08-08T17:26:46.697Z,29.70
2022-08-08T17:30:31.478Z,30.00
2022-08-08T17:34:48.296Z,30.00
2022-08-08T17:38:16.795Z,29.80
2022-08-08T17:42:02.792Z,29.80
2022-08-08T17:45:44.744Z,30.80
2022-08-08T17:49:28.490Z,31.20
2022-08-08T17:53:37.372Z,31.50
2022-08-08T17:57:22.231Z,31.70
2022-08-08T18:01:10.191Z,31.20
2022-08-08T18:04:54.962Z,31.40
2022-08-08T18:08:41.373Z,31.40
2022-08-08T18:12:24.051Z,31.80
2022-08-08T18:16:06.257Z,32.00
2022-08-08T18:20:42.993Z,32.20
2022-08-08T18:23:55.760Z,32.70
2022-08-08T18:27:38.406Z,32.80
2022-08-08T18:31:27.739Z,33.10
2022-08-08T18:35:15.665Z,32.80
2022-08-08T18:38:58.642Z,32.90
2022-08-08T18:42:45.598Z,33.20
2022-08-08T18:46:54.802Z,33.50
2022-08-08T18:50:33.946Z,33.90
2022-08-08T18:54:22.799Z,34.10
2022-08-08T18:58:10.272Z,34.10
2022-08-08T19:02:25.541Z,34.60
2022-08-08T19:05:53.973Z,34.50
2022-08-08T19:09:49.344Z,34.80
2022-08-08T19:13:56.639Z,34.90
2022-08-08T19:17:48.266Z,35.40
2022-08-08T19:21:49.194Z,36.20
2022-08-08T19:26:19.984Z,36.00
2022-08-08T19:29:42.423Z,36.20
2022-08-08T19:33:51.860Z,36.10
2022-08-08T19:37:43.039Z,36.40
2022-08-08T19:41:33.714Z,36.80
2022-08-08T19:45:58.414Z,36.90
2022-08-08T19:49:22.181Z,37.50
2022-08-08T19:53:04.579Z,38.10
2022-08-08T19:57:07.671Z,38.10
2022-08-08T20:00:50.412Z,38.40
2022-08-08T20:04:35.991Z,38.70
2022-08-08T20:08:39.312Z,39.40
2022-08-08T20:12:32.360Z,39.50
2022-08-08T20:16:18.761Z,39.60
2022-08-08T20:20:01.280Z,40.00
2022-08-08T20:23:43.794Z,40.50
2022-08-08T20:27:26.044Z,41.30
2022-08-08T20:31:14.895Z,41.40
2022-08-08T20:35:02.398Z,41.30
2022-08-08T20:38:44.381Z,41.20
2022-08-08T20:42:29.049Z,41.20
2022-08-08T20:46:11.468Z,41.70
2022-08-08T20:49:55.921Z,41.80
2022-08-08T20:53:59.233Z,42.40
2022-08-08T20:57:43.990Z,43.50
2022-08-08T21:01:31.814Z,43.20
2022-08-08T21:05:13.978Z,43.60
2022-08-08T21:08:58.892Z,43.50
2022-08-08T21:12:41.436Z,44.10
2022-08-08T21:16:29.014Z,44.80
2022-08-08T21:20:11.313Z,45.30
2022-08-08T21:23:59.051Z,45.40
2022-08-08T21:28:09.523Z,46.20
2022-08-08T21:31:58.782Z,46.70
2022-08-08T21:36:14.563Z,47.30
2022-08-08T21:39:56.341Z,47.70
2022-08-08T21:43:39.225Z,48.10
2022-08-08T21:48:03.905Z,48.50
2022-08-08T21:54:18.739Z,49.10
2022-08-08T21:56:19.557Z,49.40
2022-08-08T22:00:01.481Z,49.50
2022-08-08T22:03:30.718Z,49.50
2022-08-08T22:07:12.573Z,49.70
2022-08-08T22:10:55.259Z,49.90
2022-08-08T22:14:39.020Z,50.10
2022-08-08T22:18:24.647Z,50.30
2022-08-08T22:22:07.031Z,51.00
2022-08-08T22:26:26.957Z,51.70
2022-08-08T22:30:02.790Z,52.00
2022-08-08T22:34:13.672Z,52.40
2022-08-08T22:37:54.323Z,52.80
2022-08-08T22:41:36.718Z,53.50
2022-08-08T22:45:21.165Z,53.50
2022-08-08T22:49:03.526Z,53.80
2022-08-08T22:53:01.571Z,53.80
2022-08-08T22:56:50.174Z,53.90
2022-08-08T23:00:32.435Z,54.60
2022-08-08T23:04:14.594Z,54.70
2022-08-08T23:08:17.980Z,54.90
2022-08-08T23:12:28.935Z,55.00
2022-08-08T23:16:39.241Z,55.30
2022-08-08T23:20:06.069Z,55.30
2022-08-08T23:23:48.826Z,55.40
2022-08-08T23:27:46.285Z,55.50
2022-08-08T23:31:28.604Z,55.70
2022-08-08T23:35:16.933Z,54.70
2022-08-08T23:38:59.223Z,54.90
2022-08-08T23:42:41.032Z,55.00
2022-08-08T23:49:01.800Z,54.20
2022-08-08T23:50:29.980Z,54.10
2022-08-08T23:54:42.791Z,54.90
2022-08-08T23:58:22.314Z,55.20
